sensor_id;sensor_type;location;lat;lon;timestamp;P1;durP1;ratioP1;P2;durP2;ratioP2
16839;SDS011;8536;52.150;11.572;2023-03-07T00:01:19;16.20;;;11.40;;
16839;SDS011;8536;52.150;11.572;2023-03-07T00:03:56;18.40;;;12.00;;
16839;SDS011;8536;52.150;11.572;2023-03-07T00:06:23;18.53;;;12.40;;
16839;SDS011;8536;52.150;11.572;2023-03-07T00:08:51;17.73;;;12.03;;
16839;SDS011;8536;52.150;11.572;2023-03-07T00:11:18;17.97;;;12.27;;
16839;SDS011;8536;52.150;11.572;2023-03-07T00:13:44;18.67;;;12.57;;
16839;SDS011;8536;52.150;11.572;2023-03-07T00:16:15;19.97;;;13.60;;
16839;SDS011;8536;52.150;11.572;2023-03-07T00:18:43;20.83;;;13.17;;
16839;SDS011;8536;52.150;11.572;2023-03-07T00:21:10;20.17;;;12.93;;
16839;SDS011;8536;52.150;11.572;2023-03-07T00:23:39;19.63;;;13.37;;
16839;SDS011;8536;52.150;11.572;2023-03-07T00:26:07;20.37;;;13.87;;
16839;SDS011;8536;52.150;11.572;2023-03-07T00:28:37;18.73;;;13.30;;
16839;SDS011;8536;52.150;11.572;2023-03-07T00:31:05;19.93;;;13.50;;
16839;SDS011;8536;52.150;11.572;2023-03-07T00:33:33;21.40;;;14.30;;
16839;SDS011;8536;52.150;11.572;2023-03-07T00:36:01;20.37;;;13.53;;
16839;SDS011;8536;52.150;11.572;2023-03-07T00:38:29;20.57;;;14.50;;
16839;SDS011;8536;52.150;11.572;2023-03-07T00:40:57;22.03;;;14.60;;
16839;SDS011;8536;52.150;11.572;2023-03-07T00:43:34;22.93;;;14.27;;
16839;SDS011;8536;52.150;11.572;2023-03-07T00:46:01;22.83;;;14.50;;
16839;SDS011;8536;52.150;11.572;2023-03-07T00:48:28;22.13;;;15.20;;
16839;SDS011;8536;52.150;11.572;2023-03-07T00:50:55;22.53;;;14.17;;
16839;SDS011;8536;52.150;11.572;2023-03-07T00:53:22;21.30;;;14.73;;
16839;SDS011;8536;52.150;11.572;2023-03-07T00:58:31;23.43;;;15.27;;
16839;SDS011;8536;52.150;11.572;2023-03-07T01:00:59;22.17;;;13.97;;
16839;SDS011;8536;52.150;11.572;2023-03-07T01:03:26;21.63;;;14.20;;
16839;SDS011;8536;52.150;11.572;2023-03-07T01:05:53;22.87;;;15.03;;
16839;SDS011;8536;52.150;11.572;2023-03-07T01:08:21;24.27;;;15.33;;
16839;SDS011;8536;52.150;11.572;2023-03-07T01:10:47;23.93;;;14.37;;
16839;SDS011;8536;52.150;11.572;2023-03-07T01:13:14;20.87;;;14.37;;
16839;SDS011;8536;52.150;11.572;2023-03-07T01:15:42;26.13;;;15.80;;
16839;SDS011;8536;52.150;11.572;2023-03-07T01:18:08;23.70;;;15.50;;
16839;SDS011;8536;52.150;11.572;2023-03-07T01:20:36;23.73;;;15.73;;
16839;SDS011;8536;52.150;11.572;2023-03-07T01:23:03;26.90;;;15.97;;
16839;SDS011;8536;52.150;11.572;2023-03-07T01:25:30;24.57;;;15.70;;
16839;SDS011;8536;52.150;11.572;2023-03-07T01:27:57;22.23;;;15.17;;
16839;SDS011;8536;52.150;11.572;2023-03-07T01:30:23;26.53;;;15.37;;
16839;SDS011;8536;52.150;11.572;2023-03-07T01:32:54;26.03;;;15.80;;
16839;SDS011;8536;52.150;11.572;2023-03-07T01:35:21;22.37;;;13.87;;
16839;SDS011;8536;52.150;11.572;2023-03-07T01:37:49;28.30;;;16.50;;
16839;SDS011;8536;52.150;11.572;2023-03-07T01:40:16;22.53;;;15.40;;
16839;SDS011;8536;52.150;11.572;2023-03-07T01:42:43;26.20;;;16.77;;
16839;SDS011;8536;52.150;11.572;2023-03-07T01:47:39;27.57;;;16.73;;
16839;SDS011;8536;52.150;11.572;2023-03-07T01:50:12;27.03;;;15.73;;
16839;SDS011;8536;52.150;11.572;2023-03-07T01:52:42;25.70;;;15.40;;
16839;SDS011;8536;52.150;11.572;2023-03-07T01:55:15;27.03;;;16.93;;
16839;SDS011;8536;52.150;11.572;2023-03-07T01:57:44;24.60;;;16.83;;
16839;SDS011;8536;52.150;11.572;2023-03-07T02:00:14;26.43;;;15.97;;
16839;SDS011;8536;52.150;11.572;2023-03-07T02:02:49;26.87;;;16.53;;
16839;SDS011;8536;52.150;11.572;2023-03-07T02:05:22;23.17;;;15.43;;
16839;SDS011;8536;52.150;11.572;2023-03-07T02:07:51;26.43;;;16.63;;
16839;SDS011;8536;52.150;11.572;2023-03-07T02:10:19;24.20;;;16.37;;
16839;SDS011;8536;52.150;11.572;2023-03-07T02:12:47;23.80;;;16.17;;
16839;SDS011;8536;52.150;11.572;2023-03-07T02:15:14;24.00;;;16.00;;
16839;SDS011;8536;52.150;11.572;2023-03-07T02:17:40;24.10;;;16.03;;
16839;SDS011;8536;52.150;11.572;2023-03-07T02:22:38;25.77;;;16.63;;
16839;SDS011;8536;52.150;11.572;2023-03-07T02:25:13;23.60;;;15.53;;
16839;SDS011;8536;52.150;11.572;2023-03-07T02:27:44;23.70;;;15.57;;
16839;SDS011;8536;52.150;11.572;2023-03-07T02:30:11;25.83;;;16.53;;
16839;SDS011;8536;52.150;11.572;2023-03-07T02:32:37;23.53;;;15.40;;
16839;SDS011;8536;52.150;11.572;2023-03-07T02:35:09;24.93;;;16.37;;
16839;SDS011;8536;52.150;11.572;2023-03-07T02:37:38;24.93;;;15.63;;
16839;SDS011;8536;52.150;11.572;2023-03-07T02:40:05;25.03;;;15.07;;
16839;SDS011;8536;52.150;11.572;2023-03-07T02:42:35;25.03;;;15.77;;
16839;SDS011;8536;52.150;11.572;2023-03-07T02:45:04;23.60;;;14.73;;
16839;SDS011;8536;52.150;11.572;2023-03-07T02:47:31;24.37;;;15.13;;
16839;SDS011;8536;52.150;11.572;2023-03-07T02:49:58;25.50;;;15.50;;
16839;SDS011;8536;52.150;11.572;2023-03-07T02:52:24;23.13;;;15.13;;
16839;SDS011;8536;52.150;11.572;2023-03-07T02:54:53;23.30;;;14.43;;
16839;SDS011;8536;52.150;11.572;2023-03-07T02:57:20;22.23;;;14.10;;
16839;SDS011;8536;52.150;11.572;2023-03-07T02:59:47;23.40;;;14.57;;
16839;SDS011;8536;52.150;11.572;2023-03-07T03:02:13;21.20;;;13.70;;
16839;SDS011;8536;52.150;11.572;2023-03-07T03:04:40;22.73;;;14.53;;
16839;SDS011;8536;52.150;11.572;2023-03-07T03:07:06;21.80;;;13.97;;
16839;SDS011;8536;52.150;11.572;2023-03-07T03:09:33;25.13;;;14.60;;
16839;SDS011;8536;52.150;11.572;2023-03-07T03:11:59;21.90;;;14.30;;
16839;SDS011;8536;52.150;11.572;2023-03-07T03:14:26;25.00;;;14.90;;
16839;SDS011;8536;52.150;11.572;2023-03-07T03:16:52;24.50;;;14.93;;
16839;SDS011;8536;52.150;11.572;2023-03-07T03:19:19;24.40;;;14.97;;
16839;SDS011;8536;52.150;11.572;2023-03-07T03:21:45;23.10;;;14.37;;
16839;SDS011;8536;52.150;11.572;2023-03-07T03:24:13;21.90;;;14.33;;
16839;SDS011;8536;52.150;11.572;2023-03-07T03:26:39;22.47;;;14.20;;
16839;SDS011;8536;52.150;11.572;2023-03-07T03:29:05;21.13;;;13.70;;
16839;SDS011;8536;52.150;11.572;2023-03-07T03:31:32;23.87;;;12.83;;
16839;SDS011;8536;52.150;11.572;2023-03-07T03:34:00;20.87;;;12.40;;
16839;SDS011;8536;52.150;11.572;2023-03-07T03:36:26;18.23;;;11.73;;
16839;SDS011;8536;52.150;11.572;2023-03-07T03:38:54;18.63;;;11.97;;
16839;SDS011;8536;52.150;11.572;2023-03-07T03:41:21;19.60;;;11.57;;
16839;SDS011;8536;52.150;11.572;2023-03-07T03:43:48;18.57;;;11.97;;
16839;SDS011;8536;52.150;11.572;2023-03-07T03:46:15;17.53;;;10.40;;
16839;SDS011;8536;52.150;11.572;2023-03-07T03:48:42;17.40;;;11.13;;
16839;SDS011;8536;52.150;11.572;2023-03-07T03:51:11;17.97;;;10.87;;
16839;SDS011;8536;52.150;11.572;2023-03-07T03:53:39;15.57;;;9.87;;
16839;SDS011;8536;52.150;11.572;2023-03-07T03:56:07;16.40;;;10.37;;
16839;SDS011;8536;52.150;11.572;2023-03-07T03:58:36;16.17;;;10.43;;
16839;SDS011;8536;52.150;11.572;2023-03-07T04:01:04;13.30;;;9.37;;
16839;SDS011;8536;52.150;11.572;2023-03-07T04:03:33;14.97;;;9.13;;
16839;SDS011;8536;52.150;11.572;2023-03-07T04:06:04;14.97;;;8.87;;
16839;SDS011;8536;52.150;11.572;2023-03-07T04:08:33;13.40;;;8.87;;
16839;SDS011;8536;52.150;11.572;2023-03-07T04:11:00;13.33;;;9.23;;
16839;SDS011;8536;52.150;11.572;2023-03-07T04:13:26;15.13;;;8.80;;
16839;SDS011;8536;52.150;11.572;2023-03-07T04:15:53;15.33;;;9.77;;
16839;SDS011;8536;52.150;11.572;2023-03-07T04:18:20;14.40;;;9.90;;
16839;SDS011;8536;52.150;11.572;2023-03-07T04:20:48;13.17;;;8.70;;
16839;SDS011;8536;52.150;11.572;2023-03-07T04:23:16;13.33;;;8.70;;
16839;SDS011;8536;52.150;11.572;2023-03-07T04:25:49;12.37;;;8.10;;
16839;SDS011;8536;52.150;11.572;2023-03-07T04:28:17;12.57;;;8.30;;
16839;SDS011;8536;52.150;11.572;2023-03-07T04:30:44;16.50;;;9.47;;
16839;SDS011;8536;52.150;11.572;2023-03-07T04:33:10;12.37;;;7.90;;
16839;SDS011;8536;52.150;11.572;2023-03-07T04:35:38;12.50;;;7.97;;
16839;SDS011;8536;52.150;11.572;2023-03-07T04:38:04;11.00;;;7.67;;
16839;SDS011;8536;52.150;11.572;2023-03-07T04:40:32;13.60;;;8.37;;
16839;SDS011;8536;52.150;11.572;2023-03-07T04:42:59;12.20;;;8.10;;
16839;SDS011;8536;52.150;11.572;2023-03-07T04:45:26;11.77;;;7.77;;
16839;SDS011;8536;52.150;11.572;2023-03-07T04:47:52;11.80;;;7.30;;
16839;SDS011;8536;52.150;11.572;2023-03-07T04:50:19;9.50;;;7.00;;
16839;SDS011;8536;52.150;11.572;2023-03-07T04:52:45;11.17;;;7.77;;
16839;SDS011;8536;52.150;11.572;2023-03-07T04:55:12;9.77;;;7.00;;
16839;SDS011;8536;52.150;11.572;2023-03-07T04:57:38;10.27;;;6.77;;
16839;SDS011;8536;52.150;11.572;2023-03-07T05:00:05;10.17;;;7.50;;
16839;SDS011;8536;52.150;11.572;2023-03-07T05:02:35;10.37;;;7.33;;
16839;SDS011;8536;52.150;11.572;2023-03-07T05:05:02;9.63;;;7.10;;
16839;SDS011;8536;52.150;11.572;2023-03-07T05:07:29;9.07;;;6.60;;
16839;SDS011;8536;52.150;11.572;2023-03-07T05:09:56;7.83;;;6.07;;
16839;SDS011;8536;52.150;11.572;2023-03-07T05:12:23;10.47;;;6.17;;
16839;SDS011;8536;52.150;11.572;2023-03-07T05:14:50;9.30;;;6.17;;
16839;SDS011;8536;52.150;11.572;2023-03-07T05:17:16;7.83;;;5.80;;
16839;SDS011;8536;52.150;11.572;2023-03-07T05:19:44;8.67;;;6.67;;
16839;SDS011;8536;52.150;11.572;2023-03-07T05:22:10;8.47;;;6.10;;
16839;SDS011;8536;52.150;11.572;2023-03-07T05:24:37;9.20;;;6.17;;
16839;SDS011;8536;52.150;11.572;2023-03-07T05:27:03;8.03;;;5.93;;
16839;SDS011;8536;52.150;11.572;2023-03-07T05:29:30;8.93;;;6.37;;
16839;SDS011;8536;52.150;11.572;2023-03-07T05:31:56;8.10;;;5.87;;
16839;SDS011;8536;52.150;11.572;2023-03-07T05:34:23;8.77;;;5.73;;
16839;SDS011;8536;52.150;11.572;2023-03-07T05:36:50;7.93;;;5.67;;
16839;SDS011;8536;52.150;11.572;2023-03-07T05:39:16;6.77;;;5.20;;
16839;SDS011;8536;52.150;11.572;2023-03-07T05:41:43;8.27;;;5.10;;
16839;SDS011;8536;52.150;11.572;2023-03-07T05:44:09;7.57;;;5.30;;
16839;SDS011;8536;52.150;11.572;2023-03-07T05:46:36;6.83;;;4.77;;
16839;SDS011;8536;52.150;11.572;2023-03-07T05:49:02;7.30;;;5.43;;
16839;SDS011;8536;52.150;11.572;2023-03-07T05:51:28;5.73;;;4.17;;
16839;SDS011;8536;52.150;11.572;2023-03-07T05:53:55;6.70;;;4.77;;
16839;SDS011;8536;52.150;11.572;2023-03-07T05:56:21;7.40;;;5.17;;
16839;SDS011;8536;52.150;11.572;2023-03-07T05:58:48;6.90;;;5.03;;
16839;SDS011;8536;52.150;11.572;2023-03-07T06:01:14;7.57;;;4.97;;
16839;SDS011;8536;52.150;11.572;2023-03-07T06:03:41;7.80;;;5.20;;
16839;SDS011;8536;52.150;11.572;2023-03-07T06:06:09;6.53;;;4.80;;
16839;SDS011;8536;52.150;11.572;2023-03-07T06:08:37;7.93;;;5.67;;
16839;SDS011;8536;52.150;11.572;2023-03-07T06:11:03;7.87;;;5.60;;
16839;SDS011;8536;52.150;11.572;2023-03-07T06:13:30;7.43;;;5.40;;
16839;SDS011;8536;52.150;11.572;2023-03-07T06:15:56;6.17;;;4.53;;
16839;SDS011;8536;52.150;11.572;2023-03-07T06:18:23;7.03;;;5.23;;
16839;SDS011;8536;52.150;11.572;2023-03-07T06:21:09;7.83;;;5.83;;
16839;SDS011;8536;52.150;11.572;2023-03-07T06:23:38;8.00;;;5.13;;
16839;SDS011;8536;52.150;11.572;2023-03-07T06:26:05;6.43;;;5.00;;
16839;SDS011;8536;52.150;11.572;2023-03-07T06:28:33;7.13;;;5.20;;
16839;SDS011;8536;52.150;11.572;2023-03-07T06:31:00;6.70;;;5.10;;
16839;SDS011;8536;52.150;11.572;2023-03-07T06:33:26;7.03;;;5.40;;
16839;SDS011;8536;52.150;11.572;2023-03-07T06:35:53;8.27;;;5.67;;
16839;SDS011;8536;52.150;11.572;2023-03-07T06:38:19;7.17;;;5.60;;
16839;SDS011;8536;52.150;11.572;2023-03-07T06:40:53;7.50;;;5.83;;
16839;SDS011;8536;52.150;11.572;2023-03-07T06:43:20;7.60;;;5.10;;
16839;SDS011;8536;52.150;11.572;2023-03-07T06:45:47;7.53;;;5.40;;
16839;SDS011;8536;52.150;11.572;2023-03-07T06:48:13;8.07;;;5.47;;
16839;SDS011;8536;52.150;11.572;2023-03-07T06:50:40;7.37;;;5.47;;
16839;SDS011;8536;52.150;11.572;2023-03-07T06:53:06;7.60;;;5.43;;
16839;SDS011;8536;52.150;11.572;2023-03-07T06:55:33;7.47;;;5.20;;
16839;SDS011;8536;52.150;11.572;2023-03-07T06:57:59;7.13;;;5.50;;
16839;SDS011;8536;52.150;11.572;2023-03-07T07:00:26;7.33;;;5.27;;
16839;SDS011;8536;52.150;11.572;2023-03-07T07:02:52;8.60;;;5.90;;
16839;SDS011;8536;52.150;11.572;2023-03-07T07:05:19;8.17;;;5.50;;
16839;SDS011;8536;52.150;11.572;2023-03-07T07:07:45;8.43;;;5.80;;
16839;SDS011;8536;52.150;11.572;2023-03-07T07:10:12;9.40;;;5.97;;
16839;SDS011;8536;52.150;11.572;2023-03-07T07:12:38;9.70;;;6.10;;
16839;SDS011;8536;52.150;11.572;2023-03-07T07:15:05;9.47;;;5.73;;
16839;SDS011;8536;52.150;11.572;2023-03-07T07:17:32;7.57;;;5.67;;
16839;SDS011;8536;52.150;11.572;2023-03-07T07:20:01;7.00;;;5.37;;
16839;SDS011;8536;52.150;11.572;2023-03-07T07:22:30;7.80;;;5.40;;
16839;SDS011;8536;52.150;11.572;2023-03-07T07:24:57;7.80;;;5.13;;
16839;SDS011;8536;52.150;11.572;2023-03-07T07:27:23;6.83;;;5.20;;
16839;SDS011;8536;52.150;11.572;2023-03-07T07:29:50;9.07;;;5.30;;
16839;SDS011;8536;52.150;11.572;2023-03-07T07:32:17;6.53;;;4.57;;
16839;SDS011;8536;52.150;11.572;2023-03-07T07:34:44;5.17;;;4.47;;
16839;SDS011;8536;52.150;11.572;2023-03-07T07:37:10;5.63;;;4.77;;
16839;SDS011;8536;52.150;11.572;2023-03-07T07:39:36;5.97;;;4.33;;
16839;SDS011;8536;52.150;11.572;2023-03-07T07:42:05;6.77;;;4.57;;
16839;SDS011;8536;52.150;11.572;2023-03-07T07:44:32;5.83;;;4.27;;
16839;SDS011;8536;52.150;11.572;2023-03-07T07:46:59;6.17;;;4.73;;
16839;SDS011;8536;52.150;11.572;2023-03-07T07:49:26;5.73;;;4.40;;
16839;SDS011;8536;52.150;11.572;2023-03-07T07:51:52;5.90;;;4.30;;
16839;SDS011;8536;52.150;11.572;2023-03-07T07:54:19;4.80;;;3.97;;
16839;SDS011;8536;52.150;11.572;2023-03-07T07:56:45;5.03;;;3.60;;
16839;SDS011;8536;52.150;11.572;2023-03-07T07:59:11;4.67;;;3.90;;
16839;SDS011;8536;52.150;11.572;2023-03-07T08:01:38;5.63;;;4.57;;
16839;SDS011;8536;52.150;11.572;2023-03-07T08:04:04;7.40;;;4.83;;
16839;SDS011;8536;52.150;11.572;2023-03-07T08:06:31;6.37;;;4.93;;
16839;SDS011;8536;52.150;11.572;2023-03-07T08:08:57;5.80;;;4.30;;
16839;SDS011;8536;52.150;11.572;2023-03-07T08:11:25;7.40;;;4.53;;
16839;SDS011;8536;52.150;11.572;2023-03-07T08:13:52;6.53;;;4.30;;
16839;SDS011;8536;52.150;11.572;2023-03-07T08:16:19;6.27;;;4.63;;
16839;SDS011;8536;52.150;11.572;2023-03-07T08:18:47;5.60;;;4.73;;
16839;SDS011;8536;52.150;11.572;2023-03-07T08:21:15;7.37;;;5.30;;
16839;SDS011;8536;52.150;11.572;2023-03-07T08:23:42;5.87;;;4.10;;
16839;SDS011;8536;52.150;11.572;2023-03-07T08:26:08;7.10;;;5.40;;
16839;SDS011;8536;52.150;11.572;2023-03-07T08:28:36;5.30;;;4.43;;
16839;SDS011;8536;52.150;11.572;2023-03-07T08:31:06;6.57;;;4.53;;
16839;SDS011;8536;52.150;11.572;2023-03-07T08:34:00;5.30;;;4.17;;
16839;SDS011;8536;52.150;11.572;2023-03-07T08:36:27;5.90;;;4.57;;
16839;SDS011;8536;52.150;11.572;2023-03-07T08:38:53;5.33;;;4.43;;
16839;SDS011;8536;52.150;11.572;2023-03-07T08:41:20;5.63;;;4.50;;
16839;SDS011;8536;52.150;11.572;2023-03-07T08:43:47;6.37;;;4.70;;
16839;SDS011;8536;52.150;11.572;2023-03-07T08:46:14;6.20;;;5.17;;
16839;SDS011;8536;52.150;11.572;2023-03-07T08:48:40;5.97;;;4.73;;
16839;SDS011;8536;52.150;11.572;2023-03-07T08:51:07;4.67;;;3.83;;
16839;SDS011;8536;52.150;11.572;2023-03-07T08:53:35;4.13;;;3.73;;
16839;SDS011;8536;52.150;11.572;2023-03-07T08:56:09;6.30;;;4.00;;
16839;SDS011;8536;52.150;11.572;2023-03-07T08:58:37;4.30;;;3.77;;
16839;SDS011;8536;52.150;11.572;2023-03-07T09:01:04;4.40;;;3.70;;
16839;SDS011;8536;52.150;11.572;2023-03-07T09:03:32;3.63;;;2.87;;
16839;SDS011;8536;52.150;11.572;2023-03-07T09:05:59;4.17;;;3.20;;
16839;SDS011;8536;52.150;11.572;2023-03-07T09:08:26;2.90;;;2.60;;
16839;SDS011;8536;52.150;11.572;2023-03-07T09:10:53;3.70;;;2.93;;
16839;SDS011;8536;52.150;11.572;2023-03-07T09:13:19;3.20;;;2.90;;
16839;SDS011;8536;52.150;11.572;2023-03-07T09:15:46;5.63;;;3.10;;
16839;SDS011;8536;52.150;11.572;2023-03-07T09:18:12;3.40;;;2.70;;
16839;SDS011;8536;52.150;11.572;2023-03-07T09:20:39;3.40;;;2.77;;
16839;SDS011;8536;52.150;11.572;2023-03-07T09:23:06;4.10;;;2.63;;
16839;SDS011;8536;52.150;11.572;2023-03-07T09:25:33;3.77;;;2.60;;
16839;SDS011;8536;52.150;11.572;2023-03-07T09:27:59;3.50;;;2.43;;
16839;SDS011;8536;52.150;11.572;2023-03-07T09:30:26;4.23;;;2.60;;
16839;SDS011;8536;52.150;11.572;2023-03-07T09:32:54;2.93;;;2.30;;
16839;SDS011;8536;52.150;11.572;2023-03-07T09:35:20;2.80;;;2.53;;
16839;SDS011;8536;52.150;11.572;2023-03-07T09:37:47;3.50;;;2.23;;
16839;SDS011;8536;52.150;11.572;2023-03-07T09:40:18;2.97;;;2.40;;
16839;SDS011;8536;52.150;11.572;2023-03-07T09:42:53;2.93;;;2.50;;
16839;SDS011;8536;52.150;11.572;2023-03-07T09:45:30;2.63;;;2.43;;
16839;SDS011;8536;52.150;11.572;2023-03-07T09:48:14;2.27;;;1.97;;
16839;SDS011;8536;52.150;11.572;2023-03-07T09:53:54;2.20;;;2.00;;
16839;SDS011;8536;52.150;11.572;2023-03-07T09:56:24;2.03;;;1.90;;
16839;SDS011;8536;52.150;11.572;2023-03-07T09:59:02;2.67;;;2.13;;
16839;SDS011;8536;52.150;11.572;2023-03-07T10:01:48;2.80;;;2.50;;
16839;SDS011;8536;52.150;11.572;2023-03-07T10:04:19;2.57;;;2.30;;
16839;SDS011;8536;52.150;11.572;2023-03-07T10:06:50;1.80;;;1.70;;
16839;SDS011;8536;52.150;11.572;2023-03-07T10:09:21;3.13;;;2.03;;
16839;SDS011;8536;52.150;11.572;2023-03-07T10:17:06;1.70;;;1.60;;
16839;SDS011;8536;52.150;11.572;2023-03-07T10:19:44;1.63;;;1.53;;
16839;SDS011;8536;52.150;11.572;2023-03-07T10:22:17;1.90;;;1.50;;
16839;SDS011;8536;52.150;11.572;2023-03-07T10:24:56;3.13;;;1.37;;
16839;SDS011;8536;52.150;11.572;2023-03-07T10:27:26;1.77;;;0.70;;
16839;SDS011;8536;52.150;11.572;2023-03-07T10:29:54;2.37;;;0.77;;
16839;SDS011;8536;52.150;11.572;2023-03-07T10:32:31;2.00;;;1.00;;
16839;SDS011;8536;52.150;11.572;2023-03-07T10:35:14;9.60;;;4.63;;
16839;SDS011;8536;52.150;11.572;2023-03-07T10:37:50;2.30;;;1.40;;
16839;SDS011;8536;52.150;11.572;2023-03-07T10:40:25;6.47;;;2.30;;
16839;SDS011;8536;52.150;11.572;2023-03-07T10:42:59;6.13;;;2.87;;
16839;SDS011;8536;52.150;11.572;2023-03-07T10:45:28;8.27;;;3.37;;
16839;SDS011;8536;52.150;11.572;2023-03-07T10:47:59;5.43;;;2.97;;
16839;SDS011;8536;52.150;11.572;2023-03-07T10:53:15;3.10;;;1.60;;
16839;SDS011;8536;52.150;11.572;2023-03-07T10:55:47;2.83;;;2.17;;
16839;SDS011;8536;52.150;11.572;2023-03-07T10:58:18;2.00;;;0.97;;
16839;SDS011;8536;52.150;11.572;2023-03-07T11:01:19;1.20;;;0.63;;
16839;SDS011;8536;52.150;11.572;2023-03-07T11:03:44;2.53;;;1.20;;
16839;SDS011;8536;52.150;11.572;2023-03-07T11:09:24;3.90;;;1.20;;
16839;SDS011;8536;52.150;11.572;2023-03-07T11:11:53;2.43;;;1.20;;
16839;SDS011;8536;52.150;11.572;2023-03-07T11:14:24;2.37;;;0.80;;
16839;SDS011;8536;52.150;11.572;2023-03-07T11:19:35;3.73;;;0.90;;
16839;SDS011;8536;52.150;11.572;2023-03-07T11:22:10;0.87;;;0.53;;
16839;SDS011;8536;52.150;11.572;2023-03-07T11:27:20;4.07;;;0.90;;
16839;SDS011;8536;52.150;11.572;2023-03-07T11:30:38;0.90;;;0.77;;
16839;SDS011;8536;52.150;11.572;2023-03-07T11:32:52;2.17;;;0.73;;
16839;SDS011;8536;52.150;11.572;2023-03-07T11:35:32;1.53;;;1.00;;
16839;SDS011;8536;52.150;11.572;2023-03-07T11:38:12;1.63;;;0.97;;
16839;SDS011;8536;52.150;11.572;2023-03-07T11:43:39;1.73;;;0.83;;
16839;SDS011;8536;52.150;11.572;2023-03-07T11:59:46;2.00;;;1.00;;
16839;SDS011;8536;52.150;11.572;2023-03-07T12:02:27;1.43;;;0.73;;
16839;SDS011;8536;52.150;11.572;2023-03-07T12:13:55;0.70;;;0.70;;
16839;SDS011;8536;52.150;11.572;2023-03-07T12:19:42;1.00;;;0.73;;
16839;SDS011;8536;52.150;11.572;2023-03-07T12:22:24;1.70;;;0.80;;
16839;SDS011;8536;52.150;11.572;2023-03-07T12:25:10;4.63;;;0.90;;
16839;SDS011;8536;52.150;11.572;2023-03-07T12:27:50;1.00;;;0.90;;
16839;SDS011;8536;52.150;11.572;2023-03-07T12:30:29;1.07;;;0.83;;
16839;SDS011;8536;52.150;11.572;2023-03-07T12:33:00;1.00;;;0.90;;
16839;SDS011;8536;52.150;11.572;2023-03-07T12:35:31;1.27;;;1.00;;
16839;SDS011;8536;52.150;11.572;2023-03-07T12:38:11;1.63;;;1.40;;
16839;SDS011;8536;52.150;11.572;2023-03-07T12:40:50;1.40;;;1.30;;
16839;SDS011;8536;52.150;11.572;2023-03-07T12:46:10;2.37;;;1.47;;
16839;SDS011;8536;52.150;11.572;2023-03-07T12:49:15;1.77;;;1.47;;
16839;SDS011;8536;52.150;11.572;2023-03-07T12:51:54;1.77;;;1.30;;
16839;SDS011;8536;52.150;11.572;2023-03-07T12:54:34;1.80;;;1.30;;
16839;SDS011;8536;52.150;11.572;2023-03-07T12:57:07;1.50;;;1.17;;
16839;SDS011;8536;52.150;11.572;2023-03-07T12:59:37;1.60;;;1.40;;
16839;SDS011;8536;52.150;11.572;2023-03-07T13:02:10;1.30;;;1.00;;
16839;SDS011;8536;52.150;11.572;2023-03-07T13:04:39;1.27;;;1.00;;
16839;SDS011;8536;52.150;11.572;2023-03-07T13:07:08;2.37;;;1.20;;
16839;SDS011;8536;52.150;11.572;2023-03-07T13:09:39;1.53;;;1.20;;
16839;SDS011;8536;52.150;11.572;2023-03-07T13:14:48;2.70;;;1.40;;
16839;SDS011;8536;52.150;11.572;2023-03-07T13:17:53;3.43;;;1.77;;
16839;SDS011;8536;52.150;11.572;2023-03-07T13:27:51;2.70;;;1.60;;
16839;SDS011;8536;52.150;11.572;2023-03-07T13:30:23;2.37;;;1.00;;
16839;SDS011;8536;52.150;11.572;2023-03-07T13:35:51;1.00;;;0.57;;
16839;SDS011;8536;52.150;11.572;2023-03-07T13:40:55;1.07;;;0.40;;
16839;SDS011;8536;52.150;11.572;2023-03-07T13:45:59;1.40;;;0.60;;
16839;SDS011;8536;52.150;11.572;2023-03-07T13:51:14;1.60;;;0.60;;
16839;SDS011;8536;52.150;11.572;2023-03-07T13:54:00;2.17;;;0.60;;
16839;SDS011;8536;52.150;11.572;2023-03-07T13:56:29;2.97;;;2.37;;
16839;SDS011;8536;52.150;11.572;2023-03-07T14:01:55;0.77;;;0.73;;
16839;SDS011;8536;52.150;11.572;2023-03-07T14:04:31;1.40;;;0.60;;
16839;SDS011;8536;52.150;11.572;2023-03-07T14:07:11;0.50;;;0.50;;
16839;SDS011;8536;52.150;11.572;2023-03-07T14:09:51;1.73;;;0.70;;
16839;SDS011;8536;52.150;11.572;2023-03-07T14:18:22;0.60;;;0.50;;
16839;SDS011;8536;52.150;11.572;2023-03-07T14:21:06;0.60;;;0.50;;
16839;SDS011;8536;52.150;11.572;2023-03-07T14:23:46;0.60;;;0.60;;
16839;SDS011;8536;52.150;11.572;2023-03-07T14:31:45;0.90;;;0.70;;
16839;SDS011;8536;52.150;11.572;2023-03-07T14:36:59;2.00;;;0.90;;
16839;SDS011;8536;52.150;11.572;2023-03-07T14:45:36;1.00;;;0.90;;
16839;SDS011;8536;52.150;11.572;2023-03-07T14:48:09;1.40;;;1.10;;
16839;SDS011;8536;52.150;11.572;2023-03-07T14:50:48;1.87;;;1.03;;
16839;SDS011;8536;52.150;11.572;2023-03-07T14:53:18;1.73;;;1.63;;
16839;SDS011;8536;52.150;11.572;2023-03-07T14:55:46;2.17;;;2.07;;
16839;SDS011;8536;52.150;11.572;2023-03-07T14:58:15;2.17;;;1.97;;
16839;SDS011;8536;52.150;11.572;2023-03-07T15:01:12;3.20;;;1.90;;
16839;SDS011;8536;52.150;11.572;2023-03-07T15:03:44;2.60;;;2.40;;
16839;SDS011;8536;52.150;11.572;2023-03-07T15:06:16;4.03;;;3.50;;
16839;SDS011;8536;52.150;11.572;2023-03-07T15:08:44;2.43;;;2.23;;
16839;SDS011;8536;52.150;11.572;2023-03-07T15:11:24;3.27;;;2.93;;
16839;SDS011;8536;52.150;11.572;2023-03-07T15:13:58;2.30;;;2.10;;
16839;SDS011;8536;52.150;11.572;2023-03-07T15:16:47;2.20;;;1.40;;
16839;SDS011;8536;52.150;11.572;2023-03-07T15:19:16;2.10;;;1.53;;
16839;SDS011;8536;52.150;11.572;2023-03-07T15:21:51;1.10;;;1.00;;
16839;SDS011;8536;52.150;11.572;2023-03-07T15:24:20;0.70;;;0.70;;
16839;SDS011;8536;52.150;11.572;2023-03-07T15:26:52;0.93;;;0.80;;
16839;SDS011;8536;52.150;11.572;2023-03-07T15:29:21;1.77;;;0.70;;
16839;SDS011;8536;52.150;11.572;2023-03-07T15:31:50;0.70;;;0.70;;
16839;SDS011;8536;52.150;11.572;2023-03-07T15:34:35;1.23;;;0.83;;
16839;SDS011;8536;52.150;11.572;2023-03-07T15:42:28;1.37;;;0.70;;
16839;SDS011;8536;52.150;11.572;2023-03-07T15:44:55;1.43;;;0.80;;
16839;SDS011;8536;52.150;11.572;2023-03-07T15:47:23;0.77;;;0.73;;
16839;SDS011;8536;52.150;11.572;2023-03-07T15:49:51;0.97;;;0.60;;
16839;SDS011;8536;52.150;11.572;2023-03-07T15:55:06;2.27;;;0.90;;
16839;SDS011;8536;52.150;11.572;2023-03-07T15:57:58;2.30;;;1.00;;
16839;SDS011;8536;52.150;11.572;2023-03-07T16:00:29;2.10;;;1.00;;
16839;SDS011;8536;52.150;11.572;2023-03-07T16:05:54;1.83;;;0.80;;
16839;SDS011;8536;52.150;11.572;2023-03-07T16:08:21;1.00;;;0.80;;
16839;SDS011;8536;52.150;11.572;2023-03-07T16:10:49;2.53;;;0.90;;
16839;SDS011;8536;52.150;11.572;2023-03-07T16:13:19;6.97;;;1.43;;
16839;SDS011;8536;52.150;11.572;2023-03-07T16:18:40;4.00;;;1.57;;
16839;SDS011;8536;52.150;11.572;2023-03-07T16:21:08;3.00;;;1.40;;
16839;SDS011;8536;52.150;11.572;2023-03-07T16:23:40;1.73;;;1.20;;
16839;SDS011;8536;52.150;11.572;2023-03-07T16:26:06;3.53;;;1.27;;
16839;SDS011;8536;52.150;11.572;2023-03-07T16:28:38;1.60;;;1.30;;
16839;SDS011;8536;52.150;11.572;2023-03-07T16:31:09;4.10;;;1.73;;
16839;SDS011;8536;52.150;11.572;2023-03-07T16:33:39;1.43;;;1.20;;
16839;SDS011;8536;52.150;11.572;2023-03-07T16:36:07;4.33;;;1.80;;
16839;SDS011;8536;52.150;11.572;2023-03-07T16:38:34;2.10;;;1.50;;
16839;SDS011;8536;52.150;11.572;2023-03-07T16:41:00;4.00;;;1.70;;
16839;SDS011;8536;52.150;11.572;2023-03-07T16:43:33;1.47;;;1.37;;
16839;SDS011;8536;52.150;11.572;2023-03-07T16:46:03;1.83;;;1.60;;
16839;SDS011;8536;52.150;11.572;2023-03-07T16:48:31;3.10;;;1.63;;
16839;SDS011;8536;52.150;11.572;2023-03-07T16:50:58;2.60;;;1.67;;
16839;SDS011;8536;52.150;11.572;2023-03-07T16:53:24;1.70;;;1.60;;